Airfield :
LOGIN :

Register | Disclaimer

   EN    FR    IT 

 










Legend :    VFR   Marginal VFR   IFR   Intensive IFR   Very Intensive IFR
Visi :
Ceiling :
>= 8 km
>= 3000ft
5 to 8 km
1000 to 3000 ft
1500m to 5 km
500 to 1000 ft
800 to 1500m
200 to 500 ft
< 800m
< 200 ft
Symbols :   Thunderstorms  Fog  Heavy snow  Heavy precipitations  Wind > 20 kt
SIGMETs :     Misc.  Thunderstorms  Icing  Turbulence  Mountain Waves  Volcanic Ashes







- Airport Elevation : 622 ft
- IATA code : BRS
- Download approach charts


EGGD - Bristol Int.

CURRENT METAR :
  • 240250Z AUTO 07005KT 9999 NCD 05/02 Q1031

EXPIRED METARs :
  • 240220Z AUTO 06005KT 9999 NCD 06/02 Q1031
  • 240150Z AUTO 04006KT 9999 FEW035 06/02 Q1031
  • 240120Z AUTO 04007KT 9999 SCT036 06/02 Q1032
  • 240050Z AUTO 06005KT 9999 BKN037 06/02 Q1032
  • 240020Z AUTO 07004KT 9999 BKN038 06/01 Q1032

TAF TAF EGGD
Valid from the 24 at 00:00 until the 25 at 00:00 UTC


232258Z 2400/2424 04010KT 9999 SCT040
BECMG 2400/2403 VRB03KT
PROB30
TEMPO 2400/2406 7000 RA BKN010
BECMG 2408/2411 29010KT
ATIS : +44 1275 473 666
No reported NOTAMs for that airfield.



MET'MAP, your aeronautical weather chart ! - Copyright ORBIFLY December 2007 - Disclaimer

ORBIFLY MET'MAP TEAM :

Programming & Development : Alexandra Zaïnal
Concept & Development : Baudouin d'Aumeries
Co-Development & Prog : Marc-Olivier Méhu
Technical & hardware support : Manuel Goepfert

Contact : metmap@orbifly.com




SOURCES & CREDITS :

   NOAA